createdAt,value
2017-11-25T00:00:23.016Z,3.47
2017-11-25T00:01:24.337Z,4.83
2017-11-25T00:02:25.634Z,5.20
2017-11-25T00:03:26.973Z,5.93
2017-11-25T00:04:28.257Z,3.50
2017-11-25T00:05:29.649Z,3.33
2017-11-25T00:06:30.944Z,4.83
2017-11-25T00:07:32.245Z,3.67
2017-11-25T00:08:34.573Z,3.33
2017-11-25T00:09:35.881Z,4.20
2017-11-25T00:10:37.214Z,4.50
2017-11-25T00:11:38.514Z,4.00
2017-11-25T00:12:40.537Z,3.10
2017-11-25T00:13:41.885Z,3.20
2017-11-25T00:14:43.166Z,3.73
2017-11-25T00:15:44.456Z,5.37
2017-11-25T00:16:45.768Z,4.40
2017-11-25T00:17:47.120Z,5.67
2017-11-25T00:18:48.726Z,5.53
2017-11-25T00:19:50.021Z,5.73
2017-11-25T00:20:51.329Z,3.45
2017-11-25T00:21:52.645Z,3.30
2017-11-25T00:22:53.956Z,5.43
2017-11-25T00:23:55.568Z,4.47
2017-11-25T00:24:56.907Z,5.90
2017-11-25T00:25:58.205Z,5.05
2017-11-25T00:26:59.519Z,3.70
2017-11-25T00:28:00.871Z,4.72
2017-11-25T00:29:02.490Z,4.57
2017-11-25T00:30:03.845Z,4.33
2017-11-25T00:31:05.883Z,5.10
2017-11-25T00:32:07.927Z,4.53
2017-11-25T00:33:09.269Z,3.70
2017-11-25T00:34:10.612Z,3.23
2017-11-25T00:35:11.915Z,3.07
2017-11-25T00:36:13.229Z,3.20
2017-11-25T00:37:14.524Z,3.20
2017-11-25T00:38:15.828Z,3.47
2017-11-25T00:39:17.177Z,5.23
2017-11-25T00:40:18.470Z,4.57
2017-11-25T00:41:19.762Z,5.80
2017-11-25T00:42:21.064Z,3.53
2017-11-25T00:43:22.369Z,2.90
2017-11-25T00:44:24.703Z,3.33
2017-11-25T00:45:26.013Z,3.40
2017-11-25T00:46:27.293Z,6.17
2017-11-25T00:47:29.333Z,3.80
2017-11-25T00:48:30.613Z,3.23
2017-11-25T00:49:31.971Z,3.37
2017-11-25T00:50:33.259Z,5.33
2017-11-25T00:51:34.604Z,3.93
2017-11-25T00:52:36.651Z,2.90
2017-11-25T00:53:37.936Z,2.83
2017-11-25T00:54:39.252Z,2.87
2017-11-25T00:55:40.560Z,4.17
2017-11-25T00:56:41.861Z,4.30
2017-11-25T00:57:43.192Z,2.63
2017-11-25T00:58:44.487Z,2.53
2017-11-25T00:59:46.560Z,2.30
2017-11-25T01:00:47.884Z,5.33
2017-11-25T01:01:49.933Z,4.50
2017-11-25T01:02:51.986Z,2.53
2017-11-25T01:03:54.021Z,3.00
2017-11-25T01:04:55.618Z,3.57
2017-11-25T01:05:56.930Z,3.33
2017-11-25T01:06:58.241Z,4.20
2017-11-25T01:07:59.531Z,2.57
2017-11-25T01:09:00.843Z,3.47
2017-11-25T01:10:02.516Z,2.20
2017-11-25T01:11:03.821Z,2.30
2017-11-25T01:12:05.843Z,3.35
2017-11-25T01:13:07.149Z,2.60
2017-11-25T01:14:08.462Z,2.97
2017-11-25T01:15:11.022Z,2.40
2017-11-25T01:16:13.179Z,2.27
2017-11-25T01:17:14.629Z,3.63
2017-11-25T01:18:16.066Z,3.90
2017-11-25T01:19:17.532Z,3.37
2017-11-25T01:20:19.272Z,2.25
2017-11-25T01:21:20.742Z,3.00
2017-11-25T01:22:22.186Z,2.50
2017-11-25T01:23:30.665Z,3.37
2017-11-25T01:24:32.149Z,3.28
2017-11-25T01:25:34.618Z,2.83
2017-11-25T01:26:36.814Z,2.33
2017-11-25T01:27:38.271Z,2.50
2017-11-25T01:28:39.723Z,2.83
2017-11-25T01:29:41.177Z,3.12
2017-11-25T01:30:42.960Z,2.43
2017-11-25T01:31:44.448Z,2.90
2017-11-25T01:32:45.934Z,2.08
2017-11-25T01:33:48.139Z,2.73
2017-11-25T01:34:49.594Z,2.72
2017-11-25T01:35:51.550Z,2.20
2017-11-25T01:36:53.035Z,3.20
2017-11-25T01:37:54.507Z,4.20
2017-11-25T01:38:55.969Z,2.70
2017-11-25T01:39:57.439Z,3.00
2017-11-25T01:40:59.422Z,2.40
2017-11-25T01:42:00.884Z,2.87
2017-11-25T01:43:02.367Z,5.28
2017-11-25T01:44:03.839Z,3.13
2017-11-25T01:45:06.046Z,3.23
2017-11-25T01:46:07.799Z,3.03
2017-11-25T01:47:09.247Z,2.50
2017-11-25T01:48:10.748Z,3.90
2017-11-25T01:49:12.207Z,2.80
2017-11-25T01:50:13.727Z,2.77
2017-11-25T01:51:15.539Z,2.50
2017-11-25T01:52:16.995Z,1.90
2017-11-25T01:53:19.226Z,2.20
2017-11-25T01:54:20.709Z,3.57
2017-11-25T01:55:22.207Z,3.27
2017-11-25T01:56:23.780Z,2.73
2017-11-25T01:57:26.010Z,2.83
2017-11-25T01:58:27.493Z,4.57
2017-11-25T01:59:29.001Z,1.73
2017-11-25T02:00:30.454Z,2.17
2017-11-25T02:01:32.214Z,3.23
2017-11-25T02:02:34.431Z,2.43
2017-11-25T02:03:35.895Z,3.47
2017-11-25T02:04:37.363Z,1.90
2017-11-25T02:05:38.860Z,2.33
2017-11-25T02:06:40.688Z,2.33
2017-11-25T02:07:42.160Z,3.37
2017-11-25T02:08:43.631Z,2.30
2017-11-25T02:09:45.870Z,2.40
2017-11-25T02:10:47.310Z,1.90
2017-11-25T02:11:49.086Z,2.10
2017-11-25T02:12:50.573Z,3.90
2017-11-25T02:13:52.043Z,4.53
2017-11-25T02:14:53.501Z,2.10
2017-11-25T02:15:55.718Z,1.87
2017-11-25T02:16:57.422Z,1.80
2017-11-25T02:17:58.875Z,2.10
2017-11-25T02:19:00.376Z,3.47
2017-11-25T02:20:01.859Z,2.30
2017-11-25T02:21:03.360Z,3.00
2017-11-25T02:22:05.139Z,2.80
2017-11-25T02:23:06.656Z,3.43
2017-11-25T02:24:08.140Z,2.40
2017-11-25T02:25:09.696Z,2.23
2017-11-25T02:26:11.166Z,2.43
2017-11-25T02:27:12.927Z,3.10
2017-11-25T02:28:14.419Z,2.93
2017-11-25T02:29:15.906Z,2.30
2017-11-25T02:30:17.408Z,3.87
2017-11-25T02:31:18.890Z,2.23
2017-11-25T02:32:20.835Z,3.00
2017-11-25T02:33:22.337Z,3.00
2017-11-25T02:34:23.819Z,2.40
2017-11-25T02:35:25.330Z,3.63
2017-11-25T02:36:26.817Z,3.27
2017-11-25T02:37:28.778Z,5.37
2017-11-25T02:38:30.995Z,2.67
2017-11-25T02:39:32.491Z,2.47
2017-11-25T02:40:34.733Z,4.97
2017-11-25T02:41:36.217Z,3.80
2017-11-25T02:42:37.954Z,3.87
2017-11-25T02:43:39.462Z,3.47
2017-11-25T02:44:40.955Z,2.10
2017-11-25T02:45:42.458Z,3.63
2017-11-25T02:46:44.685Z,3.80
2017-11-25T02:47:46.627Z,2.47
2017-11-25T02:48:48.148Z,2.50
2017-11-25T02:49:49.640Z,2.97
2017-11-25T02:50:51.912Z,2.47
2017-11-25T02:51:53.420Z,3.77
2017-11-25T02:52:55.191Z,3.37
2017-11-25T02:53:56.676Z,2.23
2017-11-25T02:54:58.165Z,2.10
2017-11-25T02:55:59.650Z,5.00
2017-11-25T02:57:01.099Z,2.50
2017-11-25T02:58:02.869Z,3.93
2017-11-25T02:59:04.339Z,3.60
2017-11-25T03:00:05.795Z,2.30
2017-11-25T03:01:07.998Z,2.63
2017-11-25T03:02:09.470Z,3.00
2017-11-25T03:03:11.247Z,3.40
2017-11-25T03:04:13.467Z,2.70
2017-11-25T03:05:14.934Z,2.23
2017-11-25T03:06:16.417Z,2.23
2017-11-25T03:07:17.937Z,2.30
2017-11-25T03:08:20.487Z,5.50
2017-11-25T03:09:21.956Z,5.03
2017-11-25T03:10:23.448Z,2.73
2017-11-25T03:11:24.939Z,3.07
2017-11-25T03:12:27.140Z,2.27
2017-11-25T03:13:28.950Z,2.37
2017-11-25T03:14:30.448Z,2.90
2017-11-25T03:15:31.971Z,2.23
2017-11-25T03:16:33.416Z,2.73
2017-11-25T03:17:34.909Z,3.33
2017-11-25T03:18:37.454Z,3.72
2017-11-25T03:19:38.919Z,2.37
2017-11-25T03:20:41.099Z,3.63
2017-11-25T03:21:42.594Z,3.53
2017-11-25T03:22:44.089Z,3.00
2017-11-25T03:23:45.854Z,2.13
2017-11-25T03:24:47.326Z,3.08
2017-11-25T03:25:48.818Z,2.92
2017-11-25T03:26:50.301Z,2.95
2017-11-25T03:27:51.764Z,3.03
2017-11-25T03:28:54.270Z,2.93
2017-11-25T03:29:55.727Z,2.62
2017-11-25T03:30:57.185Z,3.78
2017-11-25T03:31:58.688Z,2.37
2017-11-25T03:33:00.136Z,2.60
2017-11-25T03:34:01.875Z,2.58
2017-11-25T03:35:03.375Z,2.95
2017-11-25T03:36:04.908Z,2.30
2017-11-25T03:37:06.373Z,2.60
2017-11-25T03:38:08.555Z,2.22
2017-11-25T03:39:10.309Z,2.83
2017-11-25T03:40:11.777Z,3.93
2017-11-25T03:41:13.206Z,3.45
2017-11-25T03:42:14.674Z,3.80
2017-11-25T03:43:16.122Z,2.67
2017-11-25T03:44:18.027Z,3.53
2017-11-25T03:45:19.481Z,3.67
2017-11-25T03:46:20.934Z,3.03
2017-11-25T03:47:22.385Z,2.27
2017-11-25T03:48:23.846Z,2.47
2017-11-25T03:49:25.588Z,2.67
2017-11-25T03:50:27.040Z,3.77
2017-11-25T03:51:29.275Z,2.50
2017-11-25T03:52:30.728Z,2.72
2017-11-25T03:53:32.214Z,3.25
2017-11-25T03:54:34.134Z,3.70
2017-11-25T03:55:36.366Z,2.75
2017-11-25T03:56:37.842Z,3.40
2017-11-25T03:57:40.059Z,2.80
2017-11-25T03:58:41.578Z,2.37
2017-11-25T03:59:43.334Z,2.77
2017-11-25T04:00:44.803Z,3.25
2017-11-25T04:01:46.290Z,2.50
2017-11-25T04:02:47.740Z,2.33
2017-11-25T04:03:49.192Z,3.03
2017-11-25T04:04:50.989Z,2.70
2017-11-25T04:05:52.450Z,2.83
2017-11-25T04:06:53.910Z,2.03
2017-11-25T04:07:55.438Z,2.63
2017-11-25T04:08:57.630Z,2.50
2017-11-25T04:09:59.383Z,2.30
2017-11-25T04:11:00.848Z,2.43
2017-11-25T04:12:02.309Z,3.10
2017-11-25T04:13:04.530Z,3.80
2017-11-25T04:14:06.013Z,2.70
2017-11-25T04:15:08.488Z,3.23
2017-11-25T04:16:10.689Z,2.50
2017-11-25T04:17:12.151Z,2.63
2017-11-25T04:18:13.608Z,4.57
2017-11-25T04:19:15.059Z,3.63
2017-11-25T04:20:17.553Z,2.20
2017-11-25T04:21:19.034Z,2.27
2017-11-25T04:22:20.492Z,3.85
2017-11-25T04:23:21.991Z,4.03
2017-11-25T04:24:23.446Z,3.43
2017-11-25T04:25:25.226Z,5.20
2017-11-25T04:26:26.726Z,2.23
2017-11-25T04:27:28.199Z,2.27
2017-11-25T04:28:29.758Z,2.67
2017-11-25T04:29:31.241Z,2.60
2017-11-25T04:30:40.988Z,4.93
2017-11-25T04:31:42.496Z,2.35
2017-11-25T04:32:43.999Z,2.92
2017-11-25T04:33:45.454Z,2.15
2017-11-25T04:34:46.934Z,2.72
2017-11-25T04:35:48.679Z,3.90
2017-11-25T04:36:50.127Z,2.40
2017-11-25T04:37:51.576Z,2.80
2017-11-25T04:38:53.025Z,2.90
2017-11-25T04:39:54.482Z,2.35
2017-11-25T04:40:56.358Z,2.90
2017-11-25T04:41:57.829Z,2.20
2017-11-25T04:43:00.036Z,2.20
2017-11-25T04:44:01.495Z,3.05
2017-11-25T04:45:03.001Z,3.40
2017-11-25T04:46:04.731Z,4.23
2017-11-25T04:47:06.179Z,3.50
2017-11-25T04:48:13.324Z,2.33
2017-11-25T04:49:15.530Z,2.93
2017-11-25T04:50:17.006Z,3.63
2017-11-25T04:51:18.687Z,2.23
2017-11-25T04:52:20.146Z,4.50
2017-11-25T04:53:21.680Z,2.53
2017-11-25T04:54:23.146Z,3.70
2017-11-25T04:55:24.649Z,4.85
2017-11-25T04:56:27.320Z,2.70
2017-11-25T04:57:29.593Z,2.40
2017-11-25T04:58:31.043Z,2.53
2017-11-25T04:59:32.511Z,3.03
2017-11-25T05:00:34.050Z,4.80
2017-11-25T05:01:35.803Z,2.40
2017-11-25T05:02:37.327Z,4.50
2017-11-25T05:03:38.807Z,15.23
2017-11-25T05:04:40.312Z,12.90
2017-11-25T05:05:41.792Z,12.67
2017-11-25T05:06:43.570Z,12.03
2017-11-25T05:07:45.037Z,8.50
2017-11-25T05:08:46.530Z,7.33
2017-11-25T05:09:48.008Z,5.53
2017-11-25T05:10:49.468Z,3.43
2017-11-25T05:11:51.235Z,4.63
2017-11-25T05:12:52.740Z,4.47
2017-11-25T05:13:54.233Z,4.70
2017-11-25T05:14:55.709Z,2.67
2017-11-25T05:15:57.199Z,2.50
2017-11-25T05:16:59.029Z,5.37
2017-11-25T05:18:00.507Z,2.23
2017-11-25T05:19:02.086Z,3.87
2017-11-25T05:20:04.324Z,2.63
2017-11-25T05:21:05.884Z,2.12
2017-11-25T05:22:08.403Z,3.23
2017-11-25T05:23:09.873Z,4.12
2017-11-25T05:24:11.350Z,3.10
2017-11-25T05:25:12.837Z,4.47
2017-11-25T05:26:14.327Z,1.93
2017-11-25T05:27:16.121Z,2.33
2017-11-25T05:28:17.575Z,3.03
2017-11-25T05:29:19.072Z,2.93
2017-11-25T05:30:20.519Z,2.67
2017-11-25T05:31:21.987Z,3.17
2017-11-25T05:32:23.801Z,2.37
2017-11-25T05:33:25.270Z,2.23
2017-11-25T05:34:26.752Z,2.33
2017-11-25T05:35:28.947Z,4.37
2017-11-25T05:36:30.406Z,3.07
2017-11-25T05:37:32.161Z,4.82
2017-11-25T05:38:33.627Z,2.92
2017-11-25T05:39:35.106Z,3.63
2017-11-25T05:40:36.599Z,4.30
2017-11-25T05:41:38.090Z,2.67
2017-11-25T05:42:40.011Z,2.20
2017-11-25T05:43:41.501Z,2.35
2017-11-25T05:44:42.962Z,4.12
2017-11-25T05:45:44.460Z,3.33
2017-11-25T05:46:46.667Z,2.70
2017-11-25T05:47:48.457Z,4.27
2017-11-25T05:48:50.694Z,2.37
2017-11-25T05:49:52.180Z,2.67
2017-11-25T05:50:53.662Z,2.50
2017-11-25T05:51:55.262Z,3.57
2017-11-25T05:52:57.091Z,2.95
2017-11-25T05:53:59.391Z,2.40
2017-11-25T05:55:01.008Z,3.30
2017-11-25T05:56:02.588Z,4.35
2017-11-25T05:57:04.092Z,2.22
2017-11-25T05:58:16.310Z,2.10
2017-11-25T05:59:17.833Z,2.33
2017-11-25T06:00:20.076Z,3.30
2017-11-25T06:01:22.309Z,2.70
2017-11-25T06:02:23.854Z,3.08
2017-11-25T06:03:25.488Z,3.05
2017-11-25T06:04:27.045Z,3.37
2017-11-25T06:05:28.593Z,5.03
2017-11-25T06:06:30.108Z,4.30
2017-11-25T06:07:31.639Z,4.27
2017-11-25T06:08:33.414Z,4.40
2017-11-25T06:09:35.029Z,5.27
2017-11-25T06:10:36.575Z,4.00
2017-11-25T06:11:38.063Z,3.23
2017-11-25T06:12:40.303Z,5.77
2017-11-25T06:13:42.096Z,6.37
2017-11-25T06:14:43.564Z,6.73
2017-11-25T06:15:45.007Z,5.07
2017-11-25T06:16:46.503Z,4.80
2017-11-25T06:17:47.950Z,5.17
2017-11-25T06:18:50.210Z,5.13
2017-11-25T06:19:52.445Z,2.97
2017-11-25T06:20:53.915Z,3.97
2017-11-25T06:21:56.118Z,2.80
2017-11-25T06:22:57.567Z,3.73
2017-11-25T06:23:59.325Z,6.27
2017-11-25T06:25:00.789Z,3.33
2017-11-25T06:26:02.273Z,3.20
2017-11-25T06:27:03.746Z,4.07
2017-11-25T06:28:09.899Z,3.27
2017-11-25T06:29:12.050Z,2.60
2017-11-25T06:30:15.242Z,4.33
2017-11-25T06:31:16.787Z,3.67
2017-11-25T06:32:18.247Z,4.20
2017-11-25T06:33:19.727Z,3.10
2017-11-25T06:34:21.536Z,3.00
2017-11-25T06:35:23.831Z,4.17
2017-11-25T06:36:25.288Z,4.43
2017-11-25T06:37:26.750Z,4.40
2017-11-25T06:38:28.216Z,3.33
2017-11-25T06:39:30.687Z,3.80
2017-11-25T06:40:32.150Z,2.50
2017-11-25T06:41:34.391Z,2.53
2017-11-25T06:42:36.623Z,2.23
2017-11-25T06:43:38.112Z,2.58
2017-11-25T06:44:39.933Z,4.13
2017-11-25T06:45:41.425Z,3.77
2017-11-25T06:46:42.909Z,3.20
2017-11-25T06:47:44.415Z,2.65
2017-11-25T06:48:45.922Z,2.55
2017-11-25T06:49:48.494Z,2.90
2017-11-25T06:50:50.719Z,3.40
2017-11-25T06:51:52.173Z,2.43
2017-11-25T06:52:53.644Z,2.30
2017-11-25T06:53:55.116Z,1.90
2017-11-25T06:54:56.873Z,1.90
2017-11-25T06:55:58.361Z,2.27
2017-11-25T06:57:00.636Z,2.03
2017-11-25T06:58:02.092Z,2.20
2017-11-25T06:59:03.576Z,3.87
2017-11-25T07:00:05.352Z,2.20
2017-11-25T07:01:06.848Z,3.80
2017-11-25T07:02:08.313Z,4.05
2017-11-25T07:03:09.776Z,3.40
2017-11-25T07:04:12.067Z,2.35
2017-11-25T07:05:13.825Z,2.00
2017-11-25T07:06:15.302Z,3.47
2017-11-25T07:07:16.780Z,3.73
2017-11-25T07:08:18.264Z,2.97
2017-11-25T07:09:19.751Z,4.57
2017-11-25T07:10:22.341Z,5.15
2017-11-25T07:11:23.832Z,3.17
2017-11-25T07:12:25.326Z,3.25
2017-11-25T07:13:26.807Z,2.80
2017-11-25T07:14:28.303Z,2.13
2017-11-25T07:15:29.843Z,4.00
2017-11-25T07:16:43.620Z,2.37
2017-11-25T07:17:45.211Z,1.80
2017-11-25T07:18:47.411Z,2.25
2017-11-25T07:19:48.911Z,3.15
2017-11-25T07:20:50.716Z,2.30
2017-11-25T07:21:52.230Z,1.60
2017-11-25T07:22:53.742Z,3.13
2017-11-25T07:23:55.979Z,2.03
2017-11-25T07:24:57.478Z,2.70
2017-11-25T07:25:59.274Z,3.25
2017-11-25T07:27:01.517Z,4.10
2017-11-25T07:28:03.045Z,2.20
2017-11-25T07:29:05.266Z,3.03
2017-11-25T07:30:06.830Z,3.72
2017-11-25T07:31:08.651Z,3.35
2017-11-25T07:32:10.853Z,2.65
2017-11-25T07:33:13.079Z,2.53
2017-11-25T07:34:14.568Z,1.87
2017-11-25T07:35:16.047Z,2.00
2017-11-25T07:36:18.595Z,4.23
2017-11-25T07:37:20.073Z,3.90
2017-11-25T07:38:21.556Z,4.27
2017-11-25T07:39:23.028Z,4.78
2017-11-25T07:40:25.267Z,2.20
2017-11-25T07:41:27.109Z,1.87
2017-11-25T07:42:28.592Z,2.35
2017-11-25T07:43:30.849Z,2.72
2017-11-25T07:44:33.074Z,2.47
2017-11-25T07:45:34.573Z,2.40
2017-11-25T07:46:36.132Z,3.00
2017-11-25T07:47:37.658Z,1.85
2017-11-25T07:48:39.164Z,1.70
2017-11-25T07:49:40.662Z,1.60
2017-11-25T07:50:42.168Z,1.95
2017-11-25T07:51:43.940Z,1.60
2017-11-25T07:52:45.406Z,1.58
2017-11-25T07:53:46.880Z,2.20
2017-11-25T07:54:48.352Z,1.83
2017-11-25T07:55:49.843Z,2.62
2017-11-25T07:56:52.334Z,1.92
2017-11-25T07:57:54.580Z,1.67
2017-11-25T07:58:56.059Z,1.98
2017-11-25T07:59:57.536Z,4.75
2017-11-25T08:00:59.006Z,1.95
2017-11-25T08:02:00.566Z,4.05
2017-11-25T08:03:02.781Z,3.42
2017-11-25T08:04:04.313Z,3.67
2017-11-25T08:05:05.789Z,3.00
2017-11-25T08:06:07.261Z,2.22
2017-11-25T08:07:09.773Z,2.12
2017-11-25T08:08:11.238Z,3.62
2017-11-25T08:09:12.684Z,2.67
2017-11-25T08:10:14.776Z,1.52
2017-11-25T08:11:16.887Z,2.05
2017-11-25T08:12:18.289Z,5.05
2017-11-25T08:13:19.618Z,3.53
2017-11-25T08:14:21.701Z,2.17
2017-11-25T08:15:23.010Z,1.60
2017-11-25T08:16:25.101Z,3.67
2017-11-25T08:17:26.861Z,2.47
2017-11-25T08:18:28.202Z,3.80
2017-11-25T08:19:29.564Z,2.87
2017-11-25T08:20:30.895Z,1.60
2017-11-25T08:21:32.285Z,2.37
2017-11-25T08:22:34.090Z,1.95
2017-11-25T08:23:35.413Z,2.83
2017-11-25T08:24:36.741Z,1.60
2017-11-25T08:25:38.098Z,1.75
2017-11-25T08:26:39.406Z,1.50
2017-11-25T08:27:40.951Z,2.22
2017-11-25T08:28:42.263Z,1.90
2017-11-25T08:29:43.598Z,2.12
2017-11-25T08:30:44.937Z,1.80
2017-11-25T08:31:46.265Z,1.60
2017-11-25T08:32:48.378Z,3.37
2017-11-25T08:33:49.741Z,6.03
2017-11-25T08:34:51.066Z,4.85
2017-11-25T08:35:52.426Z,2.42
2017-11-25T08:36:53.742Z,3.08
2017-11-25T08:37:55.107Z,2.97
2017-11-25T08:38:57.203Z,2.67
2017-11-25T08:39:58.522Z,2.83
2017-11-25T08:40:59.853Z,3.58
2017-11-25T08:42:01.157Z,2.72
2017-11-25T08:43:02.819Z,2.65
2017-11-25T08:44:04.905Z,2.05
2017-11-25T08:45:06.262Z,2.00
2017-11-25T08:46:07.576Z,2.12
2017-11-25T08:47:08.895Z,1.70
2017-11-25T08:48:11.306Z,2.90
2017-11-25T08:49:12.653Z,4.68
2017-11-25T08:50:14.742Z,2.12
2017-11-25T08:51:16.100Z,1.75
2017-11-25T08:52:17.465Z,2.50
2017-11-25T08:53:19.074Z,2.83
2017-11-25T08:54:21.132Z,3.60
2017-11-25T08:55:23.195Z,3.08
2017-11-25T08:56:24.513Z,2.47
2017-11-25T08:57:26.597Z,2.28
2017-11-25T08:58:27.951Z,2.80
2017-11-25T08:59:29.309Z,2.95
2017-11-25T09:00:30.628Z,2.05
2017-11-25T09:01:31.946Z,1.92
2017-11-25T09:02:33.247Z,2.12
2017-11-25T09:03:34.866Z,1.40
2017-11-25T09:04:36.191Z,1.67
2017-11-25T09:05:37.519Z,2.12
2017-11-25T09:06:38.845Z,1.60
2017-11-25T09:07:40.141Z,2.53
2017-11-25T09:08:41.623Z,3.95
2017-11-25T09:09:42.937Z,4.50
2017-11-25T09:10:44.986Z,3.45
2017-11-25T09:11:46.354Z,6.47
2017-11-25T09:12:47.674Z,8.88
2017-11-25T09:13:49.768Z,7.82
2017-11-25T09:14:51.082Z,5.68
2017-11-25T09:15:52.405Z,6.53
2017-11-25T09:16:54.480Z,6.03
2017-11-25T09:17:55.807Z,6.55
2017-11-25T09:18:57.917Z,8.02
2017-11-25T09:19:59.262Z,5.60
2017-11-25T09:21:00.600Z,7.30
2017-11-25T09:22:01.965Z,4.87
2017-11-25T09:23:03.287Z,4.87
2017-11-25T09:24:05.215Z,5.55
2017-11-25T09:25:06.530Z,5.43
2017-11-25T09:26:07.865Z,4.93
2017-11-25T09:27:09.984Z,4.65
2017-11-25T09:28:11.322Z,4.65
2017-11-25T09:29:12.744Z,5.72
2017-11-25T09:30:14.062Z,7.87
2017-11-25T09:31:15.418Z,3.20
2017-11-25T09:32:16.758Z,3.53
2017-11-25T09:33:18.106Z,3.95
2017-11-25T09:34:19.842Z,3.90
2017-11-25T09:35:21.174Z,6.57
2017-11-25T09:36:22.505Z,4.47
2017-11-25T09:37:23.860Z,5.53
2017-11-25T09:38:25.199Z,6.18
2017-11-25T09:39:26.813Z,4.30
2017-11-25T09:40:28.190Z,4.50
2017-11-25T09:41:29.541Z,3.92
2017-11-25T09:42:30.977Z,5.55
2017-11-25T09:43:32.306Z,6.05
2017-11-25T09:44:34.020Z,2.72
2017-11-25T09:45:35.375Z,2.80
2017-11-25T09:46:37.458Z,2.97
2017-11-25T09:47:38.820Z,2.83
2017-11-25T09:48:40.884Z,3.03
2017-11-25T09:49:42.296Z,3.53
2017-11-25T09:50:43.635Z,3.28
2017-11-25T09:51:45.705Z,3.72
2017-11-25T09:52:47.760Z,2.55
2017-11-25T09:53:49.845Z,3.40
2017-11-25T09:54:51.474Z,3.75
2017-11-25T09:55:52.790Z,2.47
2017-11-25T09:56:54.839Z,3.05
2017-11-25T09:57:56.958Z,4.43
2017-11-25T09:58:58.295Z,5.50
2017-11-25T09:59:59.877Z,3.00
2017-11-25T10:01:01.236Z,2.50
2017-11-25T10:02:02.600Z,2.40
2017-11-25T10:03:03.935Z,2.37
2017-11-25T10:04:05.264Z,4.45
2017-11-25T10:05:06.664Z,2.25
2017-11-25T10:06:08.014Z,3.92
2017-11-25T10:07:10.133Z,3.60
2017-11-25T10:08:11.465Z,2.60
2017-11-25T10:09:12.806Z,4.60
2017-11-25T10:10:14.206Z,3.37
2017-11-25T10:11:15.541Z,3.22
2017-11-25T10:12:16.897Z,6.07
2017-11-25T10:13:18.209Z,5.95
2017-11-25T10:14:20.269Z,3.78
2017-11-25T10:15:22.587Z,4.85
2017-11-25T10:16:23.917Z,7.68
2017-11-25T10:17:25.306Z,8.85
2017-11-25T10:18:27.380Z,8.25
2017-11-25T10:19:28.702Z,6.18
2017-11-25T10:20:30.833Z,5.43
2017-11-25T10:21:32.903Z,5.00
2017-11-25T10:22:34.994Z,6.97
2017-11-25T10:23:36.291Z,6.10
2017-11-25T10:24:38.342Z,4.55
2017-11-25T10:25:40.900Z,5.15
2017-11-25T10:26:42.218Z,2.80
2017-11-25T10:27:43.532Z,4.18
2017-11-25T10:28:44.890Z,3.75
2017-11-25T10:29:46.200Z,3.60
2017-11-25T10:30:47.817Z,5.72
2017-11-25T10:31:49.884Z,4.57
2017-11-25T10:32:51.924Z,4.00
2017-11-25T10:33:53.990Z,4.32
2017-11-25T10:34:56.037Z,4.80
2017-11-25T10:35:58.132Z,5.12
2017-11-25T10:36:59.472Z,3.35
2017-11-25T10:38:00.790Z,5.87
2017-11-25T10:39:02.162Z,4.50
2017-11-25T10:40:03.530Z,6.10
2017-11-25T10:41:05.166Z,8.35
2017-11-25T10:42:06.516Z,7.57
2017-11-25T10:43:07.821Z,7.18
2017-11-25T10:44:09.185Z,9.40
2017-11-25T10:45:10.561Z,11.27
2017-11-25T10:46:11.929Z,6.30
2017-11-25T10:47:13.312Z,6.65
2017-11-25T10:48:14.641Z,4.60
2017-11-25T10:49:15.941Z,3.70
2017-11-25T10:50:17.310Z,2.28
2017-11-25T10:51:18.912Z,3.75
2017-11-25T10:52:20.258Z,3.28
2017-11-25T10:53:21.585Z,3.80
2017-11-25T10:54:22.910Z,3.60
2017-11-25T10:55:24.300Z,3.25
2017-11-25T10:56:25.910Z,3.00
2017-11-25T10:57:27.215Z,3.30
2017-11-25T10:58:29.291Z,5.35
2017-11-25T10:59:30.632Z,3.97
2017-11-25T11:00:31.935Z,6.25
2017-11-25T11:01:33.545Z,4.82
2017-11-25T11:02:34.867Z,3.25
2017-11-25T11:03:36.221Z,3.90
2017-11-25T11:04:37.554Z,3.22
2017-11-25T11:05:38.888Z,4.37
2017-11-25T11:06:40.256Z,4.35
2017-11-25T11:07:41.565Z,3.55
2017-11-25T11:08:42.894Z,3.60
2017-11-25T11:09:44.227Z,3.50
2017-11-25T11:10:45.588Z,4.40
2017-11-25T11:11:47.195Z,4.28
2017-11-25T11:12:49.321Z,4.07
2017-11-25T11:13:50.661Z,3.30
2017-11-25T11:14:51.992Z,4.85
2017-11-25T11:15:53.337Z,3.87
2017-11-25T11:16:54.955Z,4.75
2017-11-25T11:17:56.263Z,2.37
2017-11-25T11:18:57.575Z,2.45
2017-11-25T11:19:59.637Z,2.03
2017-11-25T11:21:01.745Z,2.67
2017-11-25T11:22:03.365Z,4.82
2017-11-25T11:23:04.696Z,3.83
2017-11-25T11:24:06.016Z,3.78
2017-11-25T11:25:08.073Z,3.08
2017-11-25T11:26:10.123Z,2.92
2017-11-25T11:27:12.870Z,4.00
2017-11-25T11:28:14.173Z,3.47
2017-11-25T11:29:15.490Z,3.35
2017-11-25T11:30:16.797Z,3.80
2017-11-25T11:31:18.844Z,2.90
2017-11-25T11:32:20.465Z,3.60
2017-11-25T11:33:21.765Z,3.78
2017-11-25T11:34:23.080Z,3.95
2017-11-25T11:35:25.154Z,4.10
2017-11-25T11:36:26.460Z,3.90
2017-11-25T11:37:28.548Z,3.97
2017-11-25T11:38:29.886Z,4.30
2017-11-25T11:39:31.224Z,4.60
2017-11-25T11:40:32.578Z,5.82
2017-11-25T11:41:33.915Z,4.40
2017-11-25T11:42:35.256Z,5.47
2017-11-25T11:43:36.593Z,4.85
2017-11-25T11:44:37.902Z,4.90
2017-11-25T11:45:39.949Z,4.93
2017-11-25T11:46:42.000Z,4.80
2017-11-25T11:47:44.096Z,6.15
2017-11-25T11:48:45.400Z,5.32
2017-11-25T11:49:47.433Z,5.55
2017-11-25T11:50:48.749Z,4.25
2017-11-25T11:51:50.063Z,5.28
2017-11-25T11:52:51.439Z,4.30
2017-11-25T11:53:52.775Z,5.60
2017-11-25T11:54:54.106Z,5.93
2017-11-25T11:55:55.425Z,5.32
2017-11-25T11:56:56.746Z,5.07
2017-11-25T11:57:58.106Z,4.93
2017-11-25T11:58:59.423Z,7.80
2017-11-25T12:00:00.750Z,6.80
2017-11-25T12:01:02.101Z,11.25
2017-11-25T12:02:07.611Z,10.50
2017-11-25T12:03:09.932Z,6.75
2017-11-25T12:04:11.289Z,7.30
2017-11-25T12:05:12.669Z,6.35
2017-11-25T12:06:14.057Z,5.60
2017-11-25T12:07:15.366Z,6.75
2017-11-25T12:08:16.757Z,6.22
2017-11-25T12:09:18.069Z,7.47
2017-11-25T12:10:19.421Z,6.85
2017-11-25T12:11:20.771Z,7.20
2017-11-25T12:12:22.093Z,6.37
2017-11-25T12:13:23.543Z,8.30
2017-11-25T12:14:24.837Z,7.50
2017-11-25T12:15:26.166Z,10.30
2017-11-25T12:16:27.460Z,8.10
2017-11-25T12:17:28.773Z,7.90
2017-11-25T12:18:30.317Z,7.28
2017-11-25T12:19:31.650Z,9.15
2017-11-25T12:20:39.780Z,7.22
2017-11-25T12:21:41.108Z,6.72
2017-11-25T12:22:42.409Z,7.03
2017-11-25T12:23:44.017Z,8.32
2017-11-25T12:24:46.085Z,7.90
2017-11-25T12:25:47.392Z,7.45
2017-11-25T12:26:48.688Z,6.40
2017-11-25T12:27:50.022Z,8.13
2017-11-25T12:28:51.611Z,9.15
2017-11-25T12:29:52.931Z,7.68
2017-11-25T12:30:54.241Z,9.20
2017-11-25T12:31:55.597Z,7.22
2017-11-25T12:32:56.910Z,8.13
2017-11-25T12:33:58.552Z,6.55
2017-11-25T12:34:59.879Z,7.37
2017-11-25T12:36:01.214Z,8.68
2017-11-25T12:37:02.520Z,7.28
2017-11-25T12:38:04.565Z,7.95
2017-11-25T12:39:05.944Z,7.95
2017-11-25T12:40:07.277Z,7.62
2017-11-25T12:41:08.620Z,8.15
2017-11-25T12:42:09.937Z,7.27
2017-11-25T12:43:12.014Z,8.37
2017-11-25T12:44:13.386Z,8.27
2017-11-25T12:45:14.703Z,7.82
2017-11-25T12:46:16.027Z,7.97
2017-11-25T12:47:17.324Z,9.97
2017-11-25T12:48:19.478Z,8.43
2017-11-25T12:49:21.628Z,8.03
2017-11-25T12:50:22.911Z,8.57
2017-11-25T12:51:24.991Z,7.73
2017-11-25T12:52:26.298Z,8.07
2017-11-25T12:53:28.377Z,8.43
2017-11-25T12:54:29.791Z,9.35
2017-11-25T12:55:31.834Z,7.87
2017-11-25T12:56:33.177Z,8.53
2017-11-25T12:57:35.249Z,8.52
2017-11-25T12:58:37.353Z,8.03
2017-11-25T12:59:38.944Z,8.38
2017-11-25T13:00:41.001Z,8.00
2017-11-25T13:01:43.061Z,8.63
2017-11-25T13:02:44.360Z,9.03
2017-11-25T13:03:45.671Z,9.07
2017-11-25T13:04:47.262Z,9.20
2017-11-25T13:05:49.315Z,8.37
2017-11-25T13:06:51.359Z,7.97
2017-11-25T13:07:52.673Z,9.40
2017-11-25T13:08:54.016Z,8.77
2017-11-25T13:09:55.378Z,8.40
2017-11-25T13:10:56.701Z,9.00
2017-11-25T13:11:58.022Z,9.97
2017-11-25T13:13:00.065Z,8.13
2017-11-25T13:14:01.422Z,11.30
2017-11-25T13:15:03.169Z,11.80
2017-11-25T13:16:04.529Z,11.67
2017-11-25T13:17:05.849Z,14.13
2017-11-25T13:18:07.193Z,12.95
2017-11-25T13:19:08.508Z,9.27
2017-11-25T13:20:09.916Z,9.03
2017-11-25T13:21:11.227Z,8.60
2017-11-25T13:22:12.520Z,9.07
2017-11-25T13:23:13.822Z,8.37
2017-11-25T13:24:15.877Z,8.20
2017-11-25T13:25:18.264Z,7.97
2017-11-25T13:26:19.577Z,8.93
2017-11-25T13:27:21.640Z,8.03
2017-11-25T13:28:22.950Z,8.10
2017-11-25T13:29:24.283Z,7.33
2017-11-25T13:30:25.893Z,8.37
2017-11-25T13:31:27.219Z,8.35
2017-11-25T13:32:28.556Z,8.13
2017-11-25T13:33:29.893Z,7.27
2017-11-25T13:34:31.209Z,8.03
2017-11-25T13:35:33.309Z,6.93
2017-11-25T13:36:34.617Z,6.27
2017-11-25T13:37:35.959Z,5.97
2017-11-25T13:38:37.277Z,6.57
2017-11-25T13:39:39.347Z,5.97
2017-11-25T13:40:40.967Z,6.53